createdAt,value
2022-10-02T00:02:21.507Z,14.35
2022-10-02T00:04:54.317Z,14.41
2022-10-02T00:07:24.932Z,14.42
2022-10-02T00:09:56.622Z,14.46
2022-10-02T00:12:26.229Z,14.36
2022-10-02T00:15:01.261Z,14.40
2022-10-02T00:17:40.340Z,14.37
2022-10-02T00:20:17.546Z,14.36
2022-10-02T00:23:10.273Z,14.35
2022-10-02T00:25:44.864Z,14.35
2022-10-02T00:28:11.275Z,14.39
2022-10-02T00:30:49.256Z,14.44
2022-10-02T00:33:54.425Z,14.39
2022-10-02T00:36:34.879Z,14.30
2022-10-02T00:39:10.859Z,14.27
2022-10-02T00:41:58.466Z,14.27
2022-10-02T00:44:39.393Z,14.28
2022-10-02T00:47:20.226Z,14.27
2022-10-02T00:49:55.224Z,14.25
2022-10-02T00:52:27.368Z,14.22
2022-10-02T00:55:09.484Z,14.21
2022-10-02T00:57:41.576Z,14.18
2022-10-02T01:00:18.909Z,14.12
2022-10-02T01:03:06.970Z,14.05
2022-10-02T01:05:34.693Z,14.05
2022-10-02T01:08:02.211Z,14.07
2022-10-02T01:10:29.589Z,14.00
2022-10-02T01:12:57.341Z,14.00
2022-10-02T01:15:30.903Z,14.00
2022-10-02T01:17:58.045Z,14.03
2022-10-02T01:20:37.778Z,13.92
2022-10-02T01:23:38.093Z,13.83
2022-10-02T01:26:04.831Z,13.80
2022-10-02T01:28:31.563Z,13.88
2022-10-02T01:31:04.890Z,13.82
2022-10-02T01:33:32.273Z,13.78
2022-10-02T01:35:59.233Z,13.72
2022-10-02T01:38:27.729Z,13.75
2022-10-02T01:40:54.181Z,13.83
2022-10-02T01:43:37.185Z,13.92
2022-10-02T01:46:24.430Z,13.84
2022-10-02T01:49:26.310Z,13.68
2022-10-02T01:52:13.023Z,13.65
2022-10-02T01:55:07.449Z,13.58
2022-10-02T01:58:33.694Z,13.55
2022-10-02T02:01:20.336Z,13.60
2022-10-02T02:04:04.669Z,13.69
2022-10-02T02:06:58.392Z,13.72
2022-10-02T02:09:43.037Z,13.72
2022-10-02T02:12:12.171Z,13.72
2022-10-02T02:14:53.374Z,13.72
2022-10-02T02:17:39.618Z,13.65
2022-10-02T02:20:12.793Z,13.60
2022-10-02T02:22:45.571Z,13.60
2022-10-02T02:25:20.056Z,13.64
2022-10-02T02:27:52.374Z,13.66
2022-10-02T02:30:20.770Z,13.66
2022-10-02T02:32:52.216Z,13.69
2022-10-02T02:35:34.096Z,13.67
2022-10-02T02:38:06.160Z,13.61
2022-10-02T02:40:39.398Z,13.50
2022-10-02T02:43:15.119Z,13.49
2022-10-02T02:45:49.146Z,13.49
2022-10-02T02:48:22.243Z,13.43
2022-10-02T02:50:57.464Z,13.35
2022-10-02T02:53:33.447Z,13.23
2022-10-02T02:56:02.568Z,13.17
2022-10-02T02:58:39.770Z,13.24
2022-10-02T03:01:06.295Z,13.18
2022-10-02T03:03:33.018Z,13.16
2022-10-02T03:06:18.844Z,13.08
2022-10-02T03:08:47.584Z,12.97
2022-10-02T03:11:40.248Z,13.06
2022-10-02T03:14:12.908Z,13.08
2022-10-02T03:17:07.836Z,13.17
2022-10-02T03:19:47.910Z,13.09
2022-10-02T03:22:28.052Z,13.15
2022-10-02T03:25:12.150Z,13.19
2022-10-02T03:28:07.271Z,13.07
2022-10-02T03:30:36.145Z,12.98
2022-10-02T03:33:04.976Z,13.04
2022-10-02T03:35:32.447Z,13.02
2022-10-02T03:38:05.711Z,12.91
2022-10-02T03:40:32.254Z,12.80
2022-10-02T03:42:58.968Z,12.67
2022-10-02T03:45:49.575Z,12.72
2022-10-02T03:48:13.200Z,12.85
2022-10-02T03:50:39.665Z,12.86
2022-10-02T03:53:19.913Z,12.81
2022-10-02T03:55:57.743Z,12.60
2022-10-02T03:58:25.610Z,12.58
2022-10-02T04:00:58.389Z,12.67
2022-10-02T04:03:33.571Z,12.73
2022-10-02T04:06:04.820Z,12.68
2022-10-02T04:08:41.518Z,12.67
2022-10-02T04:11:25.264Z,12.66
2022-10-02T04:14:10.147Z,12.72
2022-10-02T04:16:43.307Z,12.83
2022-10-02T04:19:25.186Z,12.86
2022-10-02T04:22:02.570Z,12.90
2022-10-02T04:24:38.285Z,12.90
2022-10-02T04:27:22.759Z,12.86
2022-10-02T04:29:57.410Z,12.84
2022-10-02T04:32:30.275Z,12.80
2022-10-02T04:34:57.841Z,12.77
2022-10-02T04:37:51.950Z,12.79
2022-10-02T04:40:52.326Z,12.84
2022-10-02T04:43:37.338Z,12.86
2022-10-02T04:46:13.069Z,12.86
2022-10-02T04:49:05.589Z,12.81
2022-10-02T04:51:46.893Z,12.81
2022-10-02T04:54:28.863Z,12.81
2022-10-02T04:57:14.068Z,12.79
2022-10-02T05:00:05.141Z,12.74
2022-10-02T05:02:34.544Z,12.73
2022-10-02T05:05:30.385Z,12.77
2022-10-02T05:08:15.176Z,12.70
2022-10-02T05:10:44.460Z,12.59
2022-10-02T05:13:32.241Z,12.67
2022-10-02T05:16:08.564Z,12.72
2022-10-02T05:18:44.248Z,12.67
2022-10-02T05:21:25.741Z,12.67
2022-10-02T05:24:01.216Z,12.64
2022-10-02T05:26:39.069Z,12.68
2022-10-02T05:29:31.510Z,12.70
2022-10-02T05:32:03.712Z,12.72
2022-10-02T05:34:48.822Z,12.75
2022-10-02T05:37:42.449Z,12.69
2022-10-02T05:40:25.125Z,12.68
2022-10-02T05:42:54.433Z,12.69
2022-10-02T05:45:30.949Z,12.70
2022-10-02T05:48:07.697Z,12.74
2022-10-02T05:50:36.679Z,12.73
2022-10-02T05:53:10.526Z,12.72
2022-10-02T05:55:44.903Z,12.74
2022-10-02T05:58:22.735Z,12.72
2022-10-02T06:01:00.664Z,12.73
2022-10-02T06:03:39.734Z,12.73
2022-10-02T06:06:12.702Z,12.68
2022-10-02T06:08:47.311Z,12.70
2022-10-02T06:11:24.382Z,12.72
2022-10-02T06:14:19.969Z,12.74
2022-10-02T06:16:55.177Z,12.80
2022-10-02T06:19:29.925Z,12.77
2022-10-02T06:22:07.673Z,12.82
2022-10-02T06:24:43.802Z,12.87
2022-10-02T06:27:17.525Z,12.86
2022-10-02T06:29:50.961Z,12.92
2022-10-02T06:32:43.487Z,12.95
2022-10-02T06:35:15.727Z,12.86
2022-10-02T06:38:01.205Z,12.72
2022-10-02T06:40:42.653Z,12.69
2022-10-02T06:43:40.400Z,12.82
2022-10-02T06:46:34.264Z,12.88
2022-10-02T06:49:11.406Z,12.90
2022-10-02T06:51:59.401Z,12.91
2022-10-02T06:54:45.020Z,12.97
2022-10-02T06:57:11.566Z,12.98
2022-10-02T07:00:14.216Z,13.07
2022-10-02T07:03:02.628Z,13.25
2022-10-02T07:05:37.308Z,13.24
2022-10-02T07:08:12.734Z,13.29
2022-10-02T07:10:49.899Z,13.29
2022-10-02T07:13:35.470Z,13.35
2022-10-02T07:16:09.221Z,13.39
2022-10-02T07:18:58.667Z,13.46
2022-10-02T07:21:46.192Z,13.46
2022-10-02T07:24:41.896Z,13.53
2022-10-02T07:27:14.925Z,13.64
2022-10-02T07:29:53.692Z,13.69
2022-10-02T07:32:38.761Z,13.77
2022-10-02T07:35:22.003Z,13.80
2022-10-02T07:38:15.637Z,13.87
2022-10-02T07:41:04.657Z,13.96
2022-10-02T07:43:36.719Z,14.08
2022-10-02T07:46:48.044Z,14.14
2022-10-02T07:49:24.659Z,14.18
2022-10-02T07:52:15.205Z,14.27
2022-10-02T07:55:00.384Z,14.36
2022-10-02T07:57:49.483Z,14.46
2022-10-02T08:00:19.002Z,14.53
2022-10-02T08:03:08.337Z,14.60
2022-10-02T08:05:47.721Z,14.69
2022-10-02T08:08:24.033Z,14.80
2022-10-02T08:10:58.977Z,14.87
2022-10-02T08:13:32.823Z,14.88
2022-10-02T08:15:59.673Z,14.94
2022-10-02T08:18:43.395Z,15.06
2022-10-02T08:21:15.552Z,15.15
2022-10-02T08:23:50.153Z,15.19
2022-10-02T08:26:22.644Z,15.24
2022-10-02T08:29:05.359Z,15.33
2022-10-02T08:31:35.355Z,15.44
2022-10-02T08:34:13.547Z,15.52
2022-10-02T08:36:54.872Z,15.60
2022-10-02T08:39:40.243Z,15.73
2022-10-02T08:42:24.977Z,15.82
2022-10-02T08:45:22.297Z,15.91
2022-10-02T08:48:23.246Z,15.96
2022-10-02T08:51:01.715Z,16.03
2022-10-02T08:53:49.597Z,16.13
2022-10-02T08:56:19.951Z,16.27
2022-10-02T08:58:58.552Z,16.34
2022-10-02T09:01:59.547Z,16.55
2022-10-02T09:04:40.709Z,16.67
2022-10-02T09:07:28.193Z,16.69
2022-10-02T09:10:29.039Z,16.67
2022-10-02T09:13:31.898Z,16.88
2022-10-02T09:16:12.281Z,17.08
2022-10-02T09:18:56.257Z,17.20
2022-10-02T09:21:56.102Z,17.38
2022-10-02T09:24:43.164Z,17.43
2022-10-02T09:27:31.304Z,17.65
2022-10-02T09:30:20.031Z,17.65
2022-10-02T09:33:27.217Z,17.92
2022-10-02T09:36:01.781Z,18.14
2022-10-02T09:38:53.277Z,18.13
2022-10-02T09:41:31.915Z,18.16
2022-10-02T09:44:18.487Z,18.16
2022-10-02T09:47:06.111Z,18.32
2022-10-02T09:49:50.737Z,18.50
2022-10-02T09:52:23.266Z,18.54
2022-10-02T09:55:17.687Z,18.47
2022-10-02T09:58:11.115Z,18.66
2022-10-02T10:00:56.984Z,18.80
2022-10-02T10:03:39.637Z,19.14
2022-10-02T10:06:18.297Z,19.48
2022-10-02T10:09:12.424Z,19.56
2022-10-02T10:12:15.717Z,19.61
2022-10-02T10:15:09.446Z,19.57
2022-10-02T10:17:55.708Z,19.87
2022-10-02T10:20:36.706Z,20.11
2022-10-02T10:23:05.278Z,20.09
2022-10-02T10:25:50.389Z,20.17
2022-10-02T10:28:19.988Z,20.32
2022-10-02T10:31:10.946Z,20.37
2022-10-02T10:33:56.206Z,20.52
2022-10-02T10:37:14.393Z,20.43
2022-10-02T10:40:02.501Z,20.43
2022-10-02T10:43:07.523Z,20.66
2022-10-02T10:45:54.712Z,20.84
2022-10-02T10:48:39.528Z,20.93
2022-10-02T10:51:31.551Z,20.87
2022-10-02T10:54:01.757Z,20.80
2022-10-02T10:56:37.317Z,20.87
2022-10-02T10:59:37.036Z,21.07
2022-10-02T11:02:14.288Z,21.04
2022-10-02T11:05:11.827Z,20.96
2022-10-02T11:08:23.113Z,21.22
2022-10-02T11:11:27.828Z,21.32
2022-10-02T11:14:21.862Z,21.39
2022-10-02T11:17:13.372Z,21.31
2022-10-02T11:20:19.046Z,21.36
2022-10-02T11:23:20.638Z,21.45
2022-10-02T11:26:10.249Z,21.52
2022-10-02T11:29:07.203Z,21.48
2022-10-02T11:32:05.781Z,21.59
2022-10-02T11:34:51.302Z,21.61
2022-10-02T11:37:39.359Z,21.63
2022-10-02T11:40:34.816Z,21.73
2022-10-02T11:43:22.568Z,21.59
2022-10-02T11:46:16.917Z,21.50
2022-10-02T11:48:59.189Z,21.30
2022-10-02T11:51:35.949Z,21.63
2022-10-02T11:54:44.815Z,21.74
2022-10-02T11:57:39.862Z,21.79
2022-10-02T12:00:14.048Z,21.78
2022-10-02T12:02:43.159Z,21.75
2022-10-02T12:05:55.172Z,21.61
2022-10-02T12:08:36.369Z,21.60
2022-10-02T12:11:15.079Z,21.71
2022-10-02T12:13:48.870Z,21.84
2022-10-02T12:16:36.953Z,21.86
2022-10-02T12:19:33.971Z,21.89
2022-10-02T12:22:45.877Z,21.92
2022-10-02T12:25:49.193Z,21.88
2022-10-02T12:28:36.158Z,21.76
2022-10-02T12:31:14.316Z,21.86
2022-10-02T12:34:01.181Z,22.04
2022-10-02T12:36:44.448Z,22.04
2022-10-02T12:39:37.183Z,21.81
2022-10-02T12:42:15.622Z,21.85
2022-10-02T12:45:19.843Z,21.92
2022-10-02T12:48:04.473Z,22.09
2022-10-02T12:50:47.703Z,22.05
2022-10-02T12:53:14.197Z,22.04
2022-10-02T12:56:02.700Z,22.17
2022-10-02T12:58:53.756Z,22.19
2022-10-02T13:01:43.114Z,22.16
2022-10-02T13:04:28.689Z,22.19
2022-10-02T13:06:58.062Z,22.18
2022-10-02T13:09:28.059Z,22.06
2022-10-02T13:12:12.952Z,21.98
2022-10-02T13:15:17.151Z,22.04
2022-10-02T13:18:07.237Z,21.99
2022-10-02T13:21:06.128Z,22.18
2022-10-02T13:23:46.640Z,22.20
2022-10-02T13:26:45.261Z,22.17
2022-10-02T13:29:57.865Z,22.40
2022-10-02T13:32:52.135Z,22.38
2022-10-02T13:35:46.449Z,22.48
2022-10-02T13:38:50.050Z,22.40
2022-10-02T13:41:16.440Z,22.45
2022-10-02T13:43:49.914Z,22.41
2022-10-02T13:46:37.442Z,22.37
2022-10-02T13:49:20.375Z,22.40
2022-10-02T13:51:57.631Z,22.44
2022-10-02T13:54:50.199Z,22.36
2022-10-02T13:57:43.073Z,22.27
2022-10-02T14:00:10.292Z,22.24
2022-10-02T14:02:48.459Z,22.24
2022-10-02T14:05:31.533Z,22.09
2022-10-02T14:08:19.092Z,22.16
2022-10-02T14:10:54.109Z,22.26
2022-10-02T14:13:38.829Z,22.19
2022-10-02T14:16:31.767Z,22.21
2022-10-02T14:19:07.700Z,22.22
2022-10-02T14:21:46.982Z,22.18
2022-10-02T14:24:47.188Z,22.14
2022-10-02T14:27:45.910Z,22.12
2022-10-02T14:30:20.301Z,22.10
2022-10-02T14:33:06.773Z,22.05
2022-10-02T14:35:42.315Z,21.93
2022-10-02T14:38:24.449Z,21.93
2022-10-02T14:40:54.992Z,22.03
2022-10-02T14:43:43.333Z,22.10
2022-10-02T14:46:21.772Z,22.16
2022-10-02T14:49:09.753Z,22.14
2022-10-02T14:51:40.498Z,22.21
2022-10-02T14:54:24.756Z,22.19
2022-10-02T14:57:30.348Z,22.18
2022-10-02T15:00:15.236Z,22.25
2022-10-02T15:02:48.148Z,22.32
2022-10-02T15:05:42.504Z,22.38
2022-10-02T15:08:39.786Z,22.39
2022-10-02T15:11:21.234Z,22.49
2022-10-02T15:14:00.279Z,22.50
2022-10-02T15:16:59.440Z,22.44
2022-10-02T15:19:50.021Z,22.28
2022-10-02T15:22:32.024Z,22.25
2022-10-02T15:25:06.779Z,22.29
2022-10-02T15:27:47.881Z,22.29
2022-10-02T15:30:21.269Z,22.21
2022-10-02T15:33:11.448Z,22.14
2022-10-02T15:36:00.708Z,22.16
2022-10-02T15:38:58.053Z,22.16
2022-10-02T15:41:37.518Z,22.18
2022-10-02T15:44:33.829Z,22.23
2022-10-02T15:47:11.037Z,22.21
2022-10-02T15:49:56.398Z,22.18
2022-10-02T15:52:52.973Z,22.22
2022-10-02T15:55:22.304Z,22.19
2022-10-02T15:57:54.755Z,22.16
2022-10-02T16:00:22.868Z,22.18
2022-10-02T16:03:19.027Z,22.15
2022-10-02T16:05:58.684Z,22.14
2022-10-02T16:08:43.934Z,22.16
2022-10-02T16:11:33.855Z,22.08
2022-10-02T16:14:07.921Z,22.04
2022-10-02T16:16:56.777Z,21.93
2022-10-02T16:19:32.902Z,21.84
2022-10-02T16:22:14.422Z,21.83
2022-10-02T16:25:22.497Z,21.81
2022-10-02T16:28:10.600Z,21.72
2022-10-02T16:31:02.698Z,21.59
2022-10-02T16:33:47.670Z,21.47
2022-10-02T16:36:31.691Z,21.36
2022-10-02T16:39:34.339Z,21.26
2022-10-02T16:42:27.865Z,21.16
2022-10-02T16:45:03.389Z,21.07
2022-10-02T16:47:43.117Z,20.97
2022-10-02T16:50:29.084Z,20.93
2022-10-02T16:53:05.645Z,20.86
2022-10-02T16:55:50.756Z,20.83
2022-10-02T16:58:32.753Z,20.78
2022-10-02T17:01:25.416Z,20.64
2022-10-02T17:03:56.504Z,20.58
2022-10-02T17:06:24.445Z,20.52
2022-10-02T17:09:05.565Z,20.45
2022-10-02T17:11:44.321Z,20.38
2022-10-02T17:15:19.064Z,20.33
2022-10-02T17:18:21.340Z,20.26
2022-10-02T17:20:54.544Z,20.21
2022-10-02T17:23:33.347Z,20.17
2022-10-02T17:26:14.892Z,20.13
2022-10-02T17:28:50.260Z,20.08
2022-10-02T17:31:22.321Z,20.03
2022-10-02T17:34:02.104Z,19.98
2022-10-02T17:36:35.578Z,19.94
2022-10-02T17:39:50.255Z,19.90
2022-10-02T17:42:22.311Z,19.85
2022-10-02T17:45:26.172Z,19.83
2022-10-02T17:48:08.047Z,19.77
2022-10-02T17:51:11.079Z,19.69
2022-10-02T17:54:20.701Z,19.59
2022-10-02T17:57:12.837Z,19.52
2022-10-02T18:00:05.469Z,19.51
2022-10-02T18:02:58.296Z,19.44
2022-10-02T18:05:45.214Z,19.39
2022-10-02T18:08:45.303Z,19.35
2022-10-02T18:11:33.988Z,19.30
2022-10-02T18:14:10.174Z,19.28
2022-10-02T18:17:06.448Z,19.28
2022-10-02T18:19:42.037Z,19.25
2022-10-02T18:22:26.928Z,19.23
2022-10-02T18:25:12.337Z,19.17
2022-10-02T18:27:55.707Z,19.10
2022-10-02T18:30:24.355Z,19.04
2022-10-02T18:32:51.483Z,18.96
2022-10-02T18:36:15.014Z,18.90
2022-10-02T18:38:58.357Z,18.83
2022-10-02T18:41:42.808Z,18.68
2022-10-02T18:44:21.222Z,18.62
2022-10-02T18:46:50.614Z,18.67
2022-10-02T18:49:44.820Z,18.73
2022-10-02T18:52:36.112Z,18.79
2022-10-02T18:55:34.533Z,18.80
2022-10-02T18:58:20.073Z,18.71
2022-10-02T19:01:24.059Z,18.61
2022-10-02T19:04:17.881Z,18.63
2022-10-02T19:06:54.805Z,18.64
2022-10-02T19:09:26.888Z,18.71
2022-10-02T19:11:57.574Z,18.74
2022-10-02T19:14:42.420Z,18.74
2022-10-02T19:17:14.070Z,18.74
2022-10-02T19:19:41.773Z,18.76
2022-10-02T19:22:38.307Z,18.78
2022-10-02T19:25:23.668Z,18.76
2022-10-02T19:27:56.534Z,18.75
2022-10-02T19:30:29.982Z,18.66
2022-10-02T19:32:58.802Z,18.63
2022-10-02T19:35:33.680Z,18.56
2022-10-02T19:38:20.508Z,18.50
2022-10-02T19:40:53.399Z,18.49
2022-10-02T19:43:24.597Z,18.50
2022-10-02T19:45:57.186Z,18.55
2022-10-02T19:48:27.176Z,18.57
2022-10-02T19:50:59.450Z,18.51
2022-10-02T19:53:47.803Z,18.44
2022-10-02T19:56:24.222Z,18.35
2022-10-02T19:58:58.544Z,18.29
2022-10-02T20:01:28.551Z,18.28
2022-10-02T20:04:01.078Z,18.27
2022-10-02T20:06:31.966Z,18.31
2022-10-02T20:09:03.345Z,18.37
2022-10-02T20:11:32.748Z,18.39
2022-10-02T20:14:07.883Z,18.39
2022-10-02T20:16:53.284Z,18.37
2022-10-02T20:19:25.810Z,18.31
2022-10-02T20:21:57.291Z,18.30
2022-10-02T20:24:37.302Z,18.29
2022-10-02T20:27:11.315Z,18.27
2022-10-02T20:29:46.963Z,18.27
2022-10-02T20:32:21.564Z,18.24
2022-10-02T20:34:56.472Z,18.18
2022-10-02T20:37:29.336Z,18.11
2022-10-02T20:40:03.351Z,18.08
2022-10-02T20:42:35.557Z,18.06
2022-10-02T20:45:02.033Z,18.01
2022-10-02T20:48:03.053Z,17.95
2022-10-02T20:51:05.730Z,17.90
2022-10-02T20:53:50.876Z,17.92
2022-10-02T20:56:52.329Z,17.94
2022-10-02T21:00:15.052Z,17.89
2022-10-02T21:03:02.826Z,17.81
2022-10-02T21:05:37.328Z,17.79
2022-10-02T21:08:26.106Z,17.75
2022-10-02T21:10:55.257Z,17.67
2022-10-02T21:13:45.863Z,17.61
2022-10-02T21:16:29.828Z,17.61
2022-10-02T21:19:15.360Z,17.60
2022-10-02T21:21:44.801Z,17.55
2022-10-02T21:24:43.879Z,17.55
2022-10-02T21:27:31.814Z,17.56
2022-10-02T21:30:17.961Z,17.54
2022-10-02T21:32:59.619Z,17.55
2022-10-02T21:35:44.320Z,17.58
2022-10-02T21:38:43.611Z,17.57
2022-10-02T21:42:07.302Z,17.63
2022-10-02T21:44:48.962Z,17.62
2022-10-02T21:47:43.681Z,17.55
2022-10-02T21:50:47.353Z,17.52
2022-10-02T21:53:45.966Z,17.38
2022-10-02T21:56:52.432Z,17.30
2022-10-02T21:59:49.909Z,17.18
2022-10-02T22:02:47.664Z,17.08
2022-10-02T22:05:38.855Z,17.07
2022-10-02T22:08:12.071Z,17.06
2022-10-02T22:10:55.981Z,17.08
2022-10-02T22:13:37.027Z,17.10
2022-10-02T22:16:37.473Z,17.07
2022-10-02T22:19:15.602Z,16.97
2022-10-02T22:22:12.860Z,16.88
2022-10-02T22:25:14.104Z,16.86
2022-10-02T22:27:46.554Z,16.89
2022-10-02T22:30:28.653Z,16.79
2022-10-02T22:33:33.075Z,16.74
2022-10-02T22:36:34.861Z,16.66
2022-10-02T22:39:27.688Z,16.62
2022-10-02T22:42:00.263Z,16.41
2022-10-02T22:44:33.768Z,16.28
2022-10-02T22:47:00.109Z,16.32
2022-10-02T22:49:29.373Z,16.43
2022-10-02T22:52:04.903Z,16.42
2022-10-02T22:54:35.805Z,16.41
2022-10-02T22:57:02.118Z,16.41
2022-10-02T22:59:44.064Z,16.48
2022-10-02T23:02:52.104Z,16.51
2022-10-02T23:05:24.660Z,16.36
2022-10-02T23:08:18.405Z,16.23
2022-10-02T23:10:51.152Z,16.21
2022-10-02T23:13:41.144Z,16.22
2022-10-02T23:16:21.712Z,16.19
2022-10-02T23:19:15.913Z,16.14
2022-10-02T23:21:47.911Z,16.10
2022-10-02T23:24:28.422Z,16.06
2022-10-02T23:27:13.444Z,16.00
2022-10-02T23:29:54.936Z,15.93
2022-10-02T23:32:27.375Z,15.94
2022-10-02T23:35:00.063Z,15.99
2022-10-02T23:37:53.669Z,15.97
2022-10-02T23:40:44.573Z,15.83
2022-10-02T23:43:16.833Z,15.80
2022-10-02T23:45:54.098Z,15.78
2022-10-02T23:48:21.073Z,15.69
2022-10-02T23:51:09.659Z,15.73
2022-10-02T23:54:00.323Z,15.67
2022-10-02T23:57:04.452Z,15.66
2022-10-02T23:59:47.724Z,15.67
